sensor_id;sensor_type;location;lat;lon;timestamp;temperature;humidity
35746;DHT22;21870;42.812;74.628;2022-12-10T00:01:31;-9.50;99.90
35746;DHT22;21870;42.812;74.628;2022-12-10T00:03:58;-9.50;99.90
35746;DHT22;21870;42.812;74.628;2022-12-10T00:06:27;-9.50;99.90
35746;DHT22;21870;42.812;74.628;2022-12-10T00:08:54;-9.50;99.90
35746;DHT22;21870;42.812;74.628;2022-12-10T00:11:22;-9.40;99.90
35746;DHT22;21870;42.812;74.628;2022-12-10T00:13:50;-9.40;99.90
35746;DHT22;21870;42.812;74.628;2022-12-10T00:16:18;-9.30;99.90
35746;DHT22;21870;42.812;74.628;2022-12-10T00:18:44;-9.30;99.90
35746;DHT22;21870;42.812;74.628;2022-12-10T00:21:13;-9.20;99.90
35746;DHT22;21870;42.812;74.628;2022-12-10T00:23:40;-9.40;99.90
35746;DHT22;21870;42.812;74.628;2022-12-10T00:26:11;-9.50;99.90
35746;DHT22;21870;42.812;74.628;2022-12-10T00:28:38;-9.50;99.90
35746;DHT22;21870;42.812;74.628;2022-12-10T00:31:11;-9.40;99.90
35746;DHT22;21870;42.812;74.628;2022-12-10T00:33:37;-9.50;99.90
35746;DHT22;21870;42.812;74.628;2022-12-10T00:36:07;-9.40;99.90
35746;DHT22;21870;42.812;74.628;2022-12-10T00:38:33;-9.50;99.90
35746;DHT22;21870;42.812;74.628;2022-12-10T00:41:00;-9.50;99.90
35746;DHT22;21870;42.812;74.628;2022-12-10T00:43:26;-9.40;99.90
35746;DHT22;21870;42.812;74.628;2022-12-10T00:45:53;-9.40;99.90
35746;DHT22;21870;42.812;74.628;2022-12-10T00:48:20;-9.30;99.90
35746;DHT22;21870;42.812;74.628;2022-12-10T00:51:11;-9.30;99.90
35746;DHT22;21870;42.812;74.628;2022-12-10T00:53:38;-9.30;99.90
35746;DHT22;21870;42.812;74.628;2022-12-10T00:56:06;-9.30;99.90
35746;DHT22;21870;42.812;74.628;2022-12-10T00:58:33;-9.30;99.90
35746;DHT22;21870;42.812;74.628;2022-12-10T01:01:30;-9.30;99.90
35746;DHT22;21870;42.812;74.628;2022-12-10T01:04:08;-9.30;99.90
35746;DHT22;21870;42.812;74.628;2022-12-10T01:06:36;-9.30;99.90
35746;DHT22;21870;42.812;74.628;2022-12-10T01:09:07;-9.20;99.90
35746;DHT22;21870;42.812;74.628;2022-12-10T01:11:37;-9.20;99.90
35746;DHT22;21870;42.812;74.628;2022-12-10T01:14:09;-9.20;99.90
35746;DHT22;21870;42.812;74.628;2022-12-10T01:16:35;-9.20;99.90
35746;DHT22;21870;42.812;74.628;2022-12-10T01:19:01;-9.30;99.90
35746;DHT22;21870;42.812;74.628;2022-12-10T01:21:28;-9.20;99.90
35746;DHT22;21870;42.812;74.628;2022-12-10T01:23:55;-9.10;99.90
35746;DHT22;21870;42.812;74.628;2022-12-10T01:26:24;-9.20;99.90
35746;DHT22;21870;42.812;74.628;2022-12-10T01:28:51;-9.10;99.90
35746;DHT22;21870;42.812;74.628;2022-12-10T01:31:20;-9.20;99.90
35746;DHT22;21870;42.812;74.628;2022-12-10T01:33:47;-9.40;99.90
35746;DHT22;21870;42.812;74.628;2022-12-10T01:36:16;-9.40;99.90
35746;DHT22;21870;42.812;74.628;2022-12-10T01:38:43;-9.50;99.90
35746;DHT22;21870;42.812;74.628;2022-12-10T01:41:15;-9.60;99.90
35746;DHT22;21870;42.812;74.628;2022-12-10T01:46:27;-9.60;99.90
35746;DHT22;21870;42.812;74.628;2022-12-10T01:48:53;-9.60;99.90
35746;DHT22;21870;42.812;74.628;2022-12-10T01:51:20;-9.60;99.90
35746;DHT22;21870;42.812;74.628;2022-12-10T01:53:47;-9.60;99.90
35746;DHT22;21870;42.812;74.628;2022-12-10T01:56:16;-9.70;99.90
35746;DHT22;21870;42.812;74.628;2022-12-10T01:58:43;-9.70;99.90
35746;DHT22;21870;42.812;74.628;2022-12-10T02:09:25;-9.90;99.90
35746;DHT22;21870;42.812;74.628;2022-12-10T02:12:15;-9.90;99.90
35746;DHT22;21870;42.812;74.628;2022-12-10T02:15:15;-9.90;99.90
35746;DHT22;21870;42.812;74.628;2022-12-10T02:18:21;-9.90;99.90
35746;DHT22;21870;42.812;74.628;2022-12-10T02:20:56;-9.80;99.90
35746;DHT22;21870;42.812;74.628;2022-12-10T02:23:39;-9.70;99.90
35746;DHT22;21870;42.812;74.628;2022-12-10T02:26:24;-9.70;99.90
35746;DHT22;21870;42.812;74.628;2022-12-10T02:31:31;-9.70;99.90
35746;DHT22;21870;42.812;74.628;2022-12-10T02:34:00;-9.60;99.90
35746;DHT22;21870;42.812;74.628;2022-12-10T02:36:30;-9.50;99.90
35746;DHT22;21870;42.812;74.628;2022-12-10T02:39:01;-9.50;99.90
35746;DHT22;21870;42.812;74.628;2022-12-10T02:41:35;-9.40;99.90
35746;DHT22;21870;42.812;74.628;2022-12-10T02:44:05;-9.40;99.90
35746;DHT22;21870;42.812;74.628;2022-12-10T02:46:34;-9.30;99.90
35746;DHT22;21870;42.812;74.628;2022-12-10T02:49:04;-9.20;99.90
35746;DHT22;21870;42.812;74.628;2022-12-10T02:51:31;-9.20;99.90
35746;DHT22;21870;42.812;74.628;2022-12-10T02:54:06;-9.10;99.90
35746;DHT22;21870;42.812;74.628;2022-12-10T02:56:47;-8.90;99.90
35746;DHT22;21870;42.812;74.628;2022-12-10T02:59:50;-8.70;99.90
35746;DHT22;21870;42.812;74.628;2022-12-10T03:05:20;-8.30;99.90
35746;DHT22;21870;42.812;74.628;2022-12-10T03:08:15;-8.20;99.90
35746;DHT22;21870;42.812;74.628;2022-12-10T03:10:54;-8.10;99.90
35746;DHT22;21870;42.812;74.628;2022-12-10T03:13:28;-7.90;99.90
35746;DHT22;21870;42.812;74.628;2022-12-10T03:15:55;-7.70;99.90
35746;DHT22;21870;42.812;74.628;2022-12-10T03:18:25;-7.40;99.90
35746;DHT22;21870;42.812;74.628;2022-12-10T03:20:54;-7.20;99.90
35746;DHT22;21870;42.812;74.628;2022-12-10T03:23:24;-7.10;99.90
35746;DHT22;21870;42.812;74.628;2022-12-10T03:25:52;-6.90;99.90
35746;DHT22;21870;42.812;74.628;2022-12-10T03:28:19;-6.60;99.90
35746;DHT22;21870;42.812;74.628;2022-12-10T03:30:48;-6.40;99.90
35746;DHT22;21870;42.812;74.628;2022-12-10T03:33:15;-6.30;99.90
35746;DHT22;21870;42.812;74.628;2022-12-10T03:35:42;-6.20;99.90
35746;DHT22;21870;42.812;74.628;2022-12-10T03:38:10;-6.10;99.90
35746;DHT22;21870;42.812;74.628;2022-12-10T03:40:36;-5.80;99.90
35746;DHT22;21870;42.812;74.628;2022-12-10T03:43:02;-5.50;99.90
35746;DHT22;21870;42.812;74.628;2022-12-10T03:45:28;-5.30;99.90
35746;DHT22;21870;42.812;74.628;2022-12-10T03:47:54;-5.20;99.90
35746;DHT22;21870;42.812;74.628;2022-12-10T03:50:20;-4.90;99.90
35746;DHT22;21870;42.812;74.628;2022-12-10T03:52:46;-4.80;99.90
35746;DHT22;21870;42.812;74.628;2022-12-10T03:55:12;-4.50;99.90
35746;DHT22;21870;42.812;74.628;2022-12-10T03:57:38;-4.30;99.90
35746;DHT22;21870;42.812;74.628;2022-12-10T04:00:06;-4.10;99.90
35746;DHT22;21870;42.812;74.628;2022-12-10T04:02:32;-3.80;99.90
35746;DHT22;21870;42.812;74.628;2022-12-10T04:04:59;-3.60;99.90
35746;DHT22;21870;42.812;74.628;2022-12-10T04:07:25;-3.30;99.90
35746;DHT22;21870;42.812;74.628;2022-12-10T04:09:51;-3.10;99.90
35746;DHT22;21870;42.812;74.628;2022-12-10T04:12:17;-2.80;99.90
35746;DHT22;21870;42.812;74.628;2022-12-10T04:14:43;-2.60;99.90
35746;DHT22;21870;42.812;74.628;2022-12-10T04:17:27;-2.50;99.90
35746;DHT22;21870;42.812;74.628;2022-12-10T04:19:53;-2.40;99.90
35746;DHT22;21870;42.812;74.628;2022-12-10T04:22:19;-2.20;99.90
35746;DHT22;21870;42.812;74.628;2022-12-10T04:25:04;-2.00;99.90
35746;DHT22;21870;42.812;74.628;2022-12-10T04:27:48;-1.80;99.90
35746;DHT22;21870;42.812;74.628;2022-12-10T04:30:14;-1.40;99.90
35746;DHT22;21870;42.812;74.628;2022-12-10T04:32:40;-1.10;99.90
35746;DHT22;21870;42.812;74.628;2022-12-10T04:35:07;-0.70;99.90
35746;DHT22;21870;42.812;74.628;2022-12-10T04:37:33;-0.40;99.90
35746;DHT22;21870;42.812;74.628;2022-12-10T04:40:00;-0.20;99.90
35746;DHT22;21870;42.812;74.628;2022-12-10T04:42:26;0.10;99.90
35746;DHT22;21870;42.812;74.628;2022-12-10T04:44:52;0.20;99.90
35746;DHT22;21870;42.812;74.628;2022-12-10T04:47:18;0.40;99.90
35746;DHT22;21870;42.812;74.628;2022-12-10T04:49:44;0.60;99.90
35746;DHT22;21870;42.812;74.628;2022-12-10T04:52:15;1.00;99.90
35746;DHT22;21870;42.812;74.628;2022-12-10T04:54:42;0.90;99.90
35746;DHT22;21870;42.812;74.628;2022-12-10T04:57:09;1.10;99.90
35746;DHT22;21870;42.812;74.628;2022-12-10T04:59:36;1.10;99.90
35746;DHT22;21870;42.812;74.628;2022-12-10T05:02:03;1.20;99.90
35746;DHT22;21870;42.812;74.628;2022-12-10T05:04:29;1.40;99.90
35746;DHT22;21870;42.812;74.628;2022-12-10T05:06:55;1.60;99.90
35746;DHT22;21870;42.812;74.628;2022-12-10T05:09:21;1.70;99.90
35746;DHT22;21870;42.812;74.628;2022-12-10T05:11:48;1.80;99.90
35746;DHT22;21870;42.812;74.628;2022-12-10T05:14:15;1.90;99.90
35746;DHT22;21870;42.812;74.628;2022-12-10T05:16:42;1.80;99.90
35746;DHT22;21870;42.812;74.628;2022-12-10T05:19:09;2.10;99.90
35746;DHT22;21870;42.812;74.628;2022-12-10T05:21:35;2.10;99.90
35746;DHT22;21870;42.812;74.628;2022-12-10T05:24:19;2.30;99.90
35746;DHT22;21870;42.812;74.628;2022-12-10T05:26:46;2.60;99.90
35746;DHT22;21870;42.812;74.628;2022-12-10T05:29:16;2.80;99.90
35746;DHT22;21870;42.812;74.628;2022-12-10T05:31:42;3.10;99.90
35746;DHT22;21870;42.812;74.628;2022-12-10T05:34:10;3.50;99.90
35746;DHT22;21870;42.812;74.628;2022-12-10T05:36:36;3.30;99.90
35746;DHT22;21870;42.812;74.628;2022-12-10T05:39:03;3.40;99.80
35746;DHT22;21870;42.812;74.628;2022-12-10T05:41:31;3.00;99.30
35746;DHT22;21870;42.812;74.628;2022-12-10T05:43:59;3.30;99.90
35746;DHT22;21870;42.812;74.628;2022-12-10T05:46:28;3.50;99.90
35746;DHT22;21870;42.812;74.628;2022-12-10T05:48:55;3.40;98.40
35746;DHT22;21870;42.812;74.628;2022-12-10T05:51:23;3.10;98.50
35746;DHT22;21870;42.812;74.628;2022-12-10T05:53:51;3.40;98.70
35746;DHT22;21870;42.812;74.628;2022-12-10T05:56:19;3.50;98.70
35746;DHT22;21870;42.812;74.628;2022-12-10T05:58:47;3.30;97.90
35746;DHT22;21870;42.812;74.628;2022-12-10T06:01:18;3.20;98.20
35746;DHT22;21870;42.812;74.628;2022-12-10T06:03:45;3.40;98.50
35746;DHT22;21870;42.812;74.628;2022-12-10T06:06:12;3.70;97.90
35746;DHT22;21870;42.812;74.628;2022-12-10T06:08:39;3.30;96.60
35746;DHT22;21870;42.812;74.628;2022-12-10T06:11:07;3.20;97.60
35746;DHT22;21870;42.812;74.628;2022-12-10T06:13:34;3.60;97.90
35746;DHT22;21870;42.812;74.628;2022-12-10T06:16:08;3.70;97.50
35746;DHT22;21870;42.812;74.628;2022-12-10T06:18:35;4.20;96.90
35746;DHT22;21870;42.812;74.628;2022-12-10T06:21:11;4.30;96.80
35746;DHT22;21870;42.812;74.628;2022-12-10T06:23:38;4.60;96.70
35746;DHT22;21870;42.812;74.628;2022-12-10T06:26:10;4.80;97.30
35746;DHT22;21870;42.812;74.628;2022-12-10T06:28:37;5.00;96.20
35746;DHT22;21870;42.812;74.628;2022-12-10T06:31:03;5.00;97.50
35746;DHT22;21870;42.812;74.628;2022-12-10T06:33:30;5.30;98.10
35746;DHT22;21870;42.812;74.628;2022-12-10T06:35:57;5.30;98.00
35746;DHT22;21870;42.812;74.628;2022-12-10T06:38:23;5.40;98.80
35746;DHT22;21870;42.812;74.628;2022-12-10T06:40:49;5.30;98.30
35746;DHT22;21870;42.812;74.628;2022-12-10T06:43:15;5.30;97.70
35746;DHT22;21870;42.812;74.628;2022-12-10T06:45:42;5.20;97.00
35746;DHT22;21870;42.812;74.628;2022-12-10T06:48:09;5.10;97.30
35746;DHT22;21870;42.812;74.628;2022-12-10T06:50:35;5.30;96.90
35746;DHT22;21870;42.812;74.628;2022-12-10T06:53:02;5.60;97.60
35746;DHT22;21870;42.812;74.628;2022-12-10T06:55:28;5.60;96.70
35746;DHT22;21870;42.812;74.628;2022-12-10T06:57:55;5.70;97.50
35746;DHT22;21870;42.812;74.628;2022-12-10T07:00:21;5.70;97.60
35746;DHT22;21870;42.812;74.628;2022-12-10T07:02:49;5.70;97.10
35746;DHT22;21870;42.812;74.628;2022-12-10T07:05:15;5.60;99.80
35746;DHT22;21870;42.812;74.628;2022-12-10T07:07:41;5.60;98.90
35746;DHT22;21870;42.812;74.628;2022-12-10T07:10:08;5.70;99.10
35746;DHT22;21870;42.812;74.628;2022-12-10T07:12:35;5.70;99.20
35746;DHT22;21870;42.812;74.628;2022-12-10T07:15:02;6.00;97.40
35746;DHT22;21870;42.812;74.628;2022-12-10T07:17:28;6.30;97.20
35746;DHT22;21870;42.812;74.628;2022-12-10T07:19:54;6.20;97.70
35746;DHT22;21870;42.812;74.628;2022-12-10T07:22:20;6.10;97.20
35746;DHT22;21870;42.812;74.628;2022-12-10T07:24:48;6.00;96.60
35746;DHT22;21870;42.812;74.628;2022-12-10T07:27:14;5.90;97.00
35746;DHT22;21870;42.812;74.628;2022-12-10T07:29:40;6.00;97.30
35746;DHT22;21870;42.812;74.628;2022-12-10T07:32:06;6.10;97.80
35746;DHT22;21870;42.812;74.628;2022-12-10T07:34:32;6.20;98.20
35746;DHT22;21870;42.812;74.628;2022-12-10T07:36:58;6.30;98.10
35746;DHT22;21870;42.812;74.628;2022-12-10T07:39:24;6.30;97.60
35746;DHT22;21870;42.812;74.628;2022-12-10T07:41:52;6.30;96.20
35746;DHT22;21870;42.812;74.628;2022-12-10T07:44:21;6.30;95.00
35746;DHT22;21870;42.812;74.628;2022-12-10T07:46:49;6.30;96.20
35746;DHT22;21870;42.812;74.628;2022-12-10T07:49:16;6.30;96.00
35746;DHT22;21870;42.812;74.628;2022-12-10T07:51:47;6.30;96.00
35746;DHT22;21870;42.812;74.628;2022-12-10T07:54:14;6.70;96.70
35746;DHT22;21870;42.812;74.628;2022-12-10T07:56:41;6.90;97.00
35746;DHT22;21870;42.812;74.628;2022-12-10T07:59:07;6.10;97.60
35746;DHT22;21870;42.812;74.628;2022-12-10T08:01:33;6.60;97.60
35746;DHT22;21870;42.812;74.628;2022-12-10T08:03:59;6.50;97.20
35746;DHT22;21870;42.812;74.628;2022-12-10T08:06:27;6.50;97.20
35746;DHT22;21870;42.812;74.628;2022-12-10T08:08:54;6.50;96.60
35746;DHT22;21870;42.812;74.628;2022-12-10T08:11:21;6.40;96.50
35746;DHT22;21870;42.812;74.628;2022-12-10T08:13:49;6.30;97.60
35746;DHT22;21870;42.812;74.628;2022-12-10T08:16:18;6.50;96.80
35746;DHT22;21870;42.812;74.628;2022-12-10T08:18:45;6.60;96.50
35746;DHT22;21870;42.812;74.628;2022-12-10T08:21:13;6.50;95.10
35746;DHT22;21870;42.812;74.628;2022-12-10T08:23:40;6.50;95.50
35746;DHT22;21870;42.812;74.628;2022-12-10T08:26:13;6.60;95.40
35746;DHT22;21870;42.812;74.628;2022-12-10T08:28:39;6.60;96.00
35746;DHT22;21870;42.812;74.628;2022-12-10T08:31:08;6.60;95.20
35746;DHT22;21870;42.812;74.628;2022-12-10T08:33:35;6.50;94.80
35746;DHT22;21870;42.812;74.628;2022-12-10T08:36:03;6.30;94.50
35746;DHT22;21870;42.812;74.628;2022-12-10T08:38:29;6.40;94.10
35746;DHT22;21870;42.812;74.628;2022-12-10T08:40:56;6.80;93.70
35746;DHT22;21870;42.812;74.628;2022-12-10T08:43:22;6.80;93.20
35746;DHT22;21870;42.812;74.628;2022-12-10T08:45:48;6.90;92.80
35746;DHT22;21870;42.812;74.628;2022-12-10T08:48:14;6.90;92.10
35746;DHT22;21870;42.812;74.628;2022-12-10T08:50:40;6.90;92.10
35746;DHT22;21870;42.812;74.628;2022-12-10T08:53:06;6.90;93.50
35746;DHT22;21870;42.812;74.628;2022-12-10T08:55:37;6.90;92.10
35746;DHT22;21870;42.812;74.628;2022-12-10T08:58:03;6.90;92.90
35746;DHT22;21870;42.812;74.628;2022-12-10T09:00:29;7.00;91.60
35746;DHT22;21870;42.812;74.628;2022-12-10T09:02:55;7.00;91.30
35746;DHT22;21870;42.812;74.628;2022-12-10T09:05:25;7.00;91.40
35746;DHT22;21870;42.812;74.628;2022-12-10T09:07:51;6.80;91.70
35746;DHT22;21870;42.812;74.628;2022-12-10T09:10:17;6.90;91.10
35746;DHT22;21870;42.812;74.628;2022-12-10T09:12:43;6.90;90.80
35746;DHT22;21870;42.812;74.628;2022-12-10T09:15:09;6.90;90.60
35746;DHT22;21870;42.812;74.628;2022-12-10T09:20:05;7.00;90.40
35746;DHT22;21870;42.812;74.628;2022-12-10T09:22:31;7.10;90.60
35746;DHT22;21870;42.812;74.628;2022-12-10T09:24:58;7.20;90.40
35746;DHT22;21870;42.812;74.628;2022-12-10T09:27:24;7.10;90.50
35746;DHT22;21870;42.812;74.628;2022-12-10T09:29:50;7.10;88.50
35746;DHT22;21870;42.812;74.628;2022-12-10T09:32:16;7.10;89.50
35746;DHT22;21870;42.812;74.628;2022-12-10T09:34:43;6.90;89.10
35746;DHT22;21870;42.812;74.628;2022-12-10T09:37:09;6.90;90.40
35746;DHT22;21870;42.812;74.628;2022-12-10T09:39:35;7.00;90.00
35746;DHT22;21870;42.812;74.628;2022-12-10T09:42:22;7.00;90.70
35746;DHT22;21870;42.812;74.628;2022-12-10T09:47:40;7.00;91.70
35746;DHT22;21870;42.812;74.628;2022-12-10T09:50:47;7.10;91.90
35746;DHT22;21870;42.812;74.628;2022-12-10T09:53:15;7.20;91.70
35746;DHT22;21870;42.812;74.628;2022-12-10T09:55:46;7.00;93.00
35746;DHT22;21870;42.812;74.628;2022-12-10T09:58:20;6.80;93.00
35746;DHT22;21870;42.812;74.628;2022-12-10T10:00:49;6.60;94.50
35746;DHT22;21870;42.812;74.628;2022-12-10T10:03:17;6.50;93.70
35746;DHT22;21870;42.812;74.628;2022-12-10T10:05:51;6.40;94.10
35746;DHT22;21870;42.812;74.628;2022-12-10T10:08:33;6.30;94.20
35746;DHT22;21870;42.812;74.628;2022-12-10T10:11:00;6.10;94.00
35746;DHT22;21870;42.812;74.628;2022-12-10T10:13:36;6.10;94.10
35746;DHT22;21870;42.812;74.628;2022-12-10T10:16:23;5.90;94.50
35746;DHT22;21870;42.812;74.628;2022-12-10T10:19:00;5.80;94.10
35746;DHT22;21870;42.812;74.628;2022-12-10T10:21:39;5.70;94.30
35746;DHT22;21870;42.812;74.628;2022-12-10T10:24:07;5.70;94.30
35746;DHT22;21870;42.812;74.628;2022-12-10T10:26:36;5.60;93.80
35746;DHT22;21870;42.812;74.628;2022-12-10T10:29:06;5.60;93.90
35746;DHT22;21870;42.812;74.628;2022-12-10T10:31:34;5.50;93.90
35746;DHT22;21870;42.812;74.628;2022-12-10T10:34:03;5.30;93.80
35746;DHT22;21870;42.812;74.628;2022-12-10T10:36:35;5.20;93.90
35746;DHT22;21870;42.812;74.628;2022-12-10T10:39:29;5.00;94.20
35746;DHT22;21870;42.812;74.628;2022-12-10T10:41:58;5.00;94.50
35746;DHT22;21870;42.812;74.628;2022-12-10T10:44:33;4.80;94.70
35746;DHT22;21870;42.812;74.628;2022-12-10T10:47:01;4.70;94.80
35746;DHT22;21870;42.812;74.628;2022-12-10T10:49:30;4.40;95.00
35746;DHT22;21870;42.812;74.628;2022-12-10T10:52:06;4.30;95.00
35746;DHT22;21870;42.812;74.628;2022-12-10T10:54:40;4.10;95.20
35746;DHT22;21870;42.812;74.628;2022-12-10T10:59:55;3.50;97.20
35746;DHT22;21870;42.812;74.628;2022-12-10T11:02:38;3.10;97.10
35746;DHT22;21870;42.812;74.628;2022-12-10T11:05:23;2.80;96.90
35746;DHT22;21870;42.812;74.628;2022-12-10T11:08:02;2.40;96.80
35746;DHT22;21870;42.812;74.628;2022-12-10T11:10:29;2.00;97.30
35746;DHT22;21870;42.812;74.628;2022-12-10T11:12:57;1.70;97.70
35746;DHT22;21870;42.812;74.628;2022-12-10T11:15:32;1.30;98.50
35746;DHT22;21870;42.812;74.628;2022-12-10T11:18:00;0.90;98.70
35746;DHT22;21870;42.812;74.628;2022-12-10T11:20:32;0.30;99.60
35746;DHT22;21870;42.812;74.628;2022-12-10T11:23:08;0.00;99.90
35746;DHT22;21870;42.812;74.628;2022-12-10T11:26:02;-0.10;99.90
35746;DHT22;21870;42.812;74.628;2022-12-10T11:28:50;-0.30;99.90
35746;DHT22;21870;42.812;74.628;2022-12-10T11:40:02;-1.20;99.90
35746;DHT22;21870;42.812;74.628;2022-12-10T11:43:06;-1.60;99.90
35746;DHT22;21870;42.812;74.628;2022-12-10T11:48:41;-2.00;99.90
35746;DHT22;21870;42.812;74.628;2022-12-10T11:56:43;-2.50;99.90
35746;DHT22;21870;42.812;74.628;2022-12-10T12:08:27;-2.60;99.90
35746;DHT22;21870;42.812;74.628;2022-12-10T12:14:26;-2.70;99.90
35746;DHT22;21870;42.812;74.628;2022-12-10T12:19:40;-2.70;99.90
35746;DHT22;21870;42.812;74.628;2022-12-10T12:22:38;-2.70;99.90
35746;DHT22;21870;42.812;74.628;2022-12-10T12:25:37;-2.70;99.90
35746;DHT22;21870;42.812;74.628;2022-12-10T12:28:22;-2.60;99.90
35746;DHT22;21870;42.812;74.628;2022-12-10T12:30:57;-2.80;99.90
35746;DHT22;21870;42.812;74.628;2022-12-10T12:33:46;-2.90;99.90
35746;DHT22;21870;42.812;74.628;2022-12-10T12:36:19;-2.90;99.90
35746;DHT22;21870;42.812;74.628;2022-12-10T12:44:56;-3.20;99.90
35746;DHT22;21870;42.812;74.628;2022-12-10T12:47:32;-3.30;99.90
35746;DHT22;21870;42.812;74.628;2022-12-10T12:50:00;-3.30;99.90
35746;DHT22;21870;42.812;74.628;2022-12-10T12:52:36;-3.40;99.90
35746;DHT22;21870;42.812;74.628;2022-12-10T12:55:12;-3.50;99.90
35746;DHT22;21870;42.812;74.628;2022-12-10T12:58:13;-3.40;99.90
35746;DHT22;21870;42.812;74.628;2022-12-10T13:00:41;-3.60;99.90
35746;DHT22;21870;42.812;74.628;2022-12-10T13:03:27;-3.50;99.90
35746;DHT22;21870;42.812;74.628;2022-12-10T13:05:55;-3.60;99.90
35746;DHT22;21870;42.812;74.628;2022-12-10T13:08:25;-3.70;99.90
35746;DHT22;21870;42.812;74.628;2022-12-10T13:10:59;-3.90;99.90
35746;DHT22;21870;42.812;74.628;2022-12-10T13:15:55;-4.00;99.90
35746;DHT22;21870;42.812;74.628;2022-12-10T13:18:33;-4.10;99.90
35746;DHT22;21870;42.812;74.628;2022-12-10T13:21:27;-4.20;99.90
35746;DHT22;21870;42.812;74.628;2022-12-10T13:24:08;-4.40;99.90
35746;DHT22;21870;42.812;74.628;2022-12-10T13:26:35;-4.50;99.90
35746;DHT22;21870;42.812;74.628;2022-12-10T13:29:25;-4.50;99.90
35746;DHT22;21870;42.812;74.628;2022-12-10T13:31:57;-4.50;99.90
35746;DHT22;21870;42.812;74.628;2022-12-10T13:34:33;-4.60;99.90
35746;DHT22;21870;42.812;74.628;2022-12-10T13:37:27;-4.50;99.90
35746;DHT22;21870;42.812;74.628;2022-12-10T13:42:37;-4.40;99.90
35746;DHT22;21870;42.812;74.628;2022-12-10T13:50:51;-4.70;99.90
35746;DHT22;21870;42.812;74.628;2022-12-10T13:53:43;-4.80;99.90
35746;DHT22;21870;42.812;74.628;2022-12-10T13:56:26;-4.80;99.90
35746;DHT22;21870;42.812;74.628;2022-12-10T14:02:13;-4.90;99.90
35746;DHT22;21870;42.812;74.628;2022-12-10T14:07:16;-5.00;99.90
35746;DHT22;21870;42.812;74.628;2022-12-10T14:09:54;-5.00;99.90
35746;DHT22;21870;42.812;74.628;2022-12-10T14:12:41;-5.00;99.90
35746;DHT22;21870;42.812;74.628;2022-12-10T14:15:20;-4.80;99.90
35746;DHT22;21870;42.812;74.628;2022-12-10T14:17:50;-4.90;99.90
35746;DHT22;21870;42.812;74.628;2022-12-10T14:20:25;-4.90;99.90
35746;DHT22;21870;42.812;74.628;2022-12-10T14:22:54;-4.90;99.90
35746;DHT22;21870;42.812;74.628;2022-12-10T14:25:45;-4.90;99.90
35746;DHT22;21870;42.812;74.628;2022-12-10T14:28:16;-4.90;99.90
35746;DHT22;21870;42.812;74.628;2022-12-10T14:30:45;-4.90;99.90
35746;DHT22;21870;42.812;74.628;2022-12-10T14:33:16;-4.90;99.90
35746;DHT22;21870;42.812;74.628;2022-12-10T14:35:50;-4.90;99.90
35746;DHT22;21870;42.812;74.628;2022-12-10T14:38:31;-5.10;99.90
35746;DHT22;21870;42.812;74.628;2022-12-10T14:41:01;-5.10;99.90
35746;DHT22;21870;42.812;74.628;2022-12-10T14:43:48;-5.10;99.90
35746;DHT22;21870;42.812;74.628;2022-12-10T14:46:24;-5.10;99.90
35746;DHT22;21870;42.812;74.628;2022-12-10T14:48:51;-5.10;99.90
35746;DHT22;21870;42.812;74.628;2022-12-10T14:51:24;-5.00;99.90
35746;DHT22;21870;42.812;74.628;2022-12-10T14:53:52;-5.00;99.90
35746;DHT22;21870;42.812;74.628;2022-12-10T14:56:39;-5.00;99.90
35746;DHT22;21870;42.812;74.628;2022-12-10T14:59:16;-5.00;99.90
35746;DHT22;21870;42.812;74.628;2022-12-10T15:01:52;-5.00;99.90
35746;DHT22;21870;42.812;74.628;2022-12-10T15:04:21;-5.10;99.90
35746;DHT22;21870;42.812;74.628;2022-12-10T15:06:50;-5.20;99.90
35746;DHT22;21870;42.812;74.628;2022-12-10T15:09:22;-5.30;99.90
35746;DHT22;21870;42.812;74.628;2022-12-10T15:11:58;-5.30;99.90
35746;DHT22;21870;42.812;74.628;2022-12-10T15:14:26;-5.30;99.90
35746;DHT22;21870;42.812;74.628;2022-12-10T15:16:53;-5.30;99.90
35746;DHT22;21870;42.812;74.628;2022-12-10T15:19:24;-5.40;99.90
35746;DHT22;21870;42.812;74.628;2022-12-10T15:21:56;-5.40;99.90
35746;DHT22;21870;42.812;74.628;2022-12-10T15:24:35;-5.30;99.90
35746;DHT22;21870;42.812;74.628;2022-12-10T15:27:17;-5.30;99.90
35746;DHT22;21870;42.812;74.628;2022-12-10T15:29:44;-5.30;99.90
35746;DHT22;21870;42.812;74.628;2022-12-10T15:32:14;-5.20;99.90
35746;DHT22;21870;42.812;74.628;2022-12-10T15:34:57;-5.20;99.90
35746;DHT22;21870;42.812;74.628;2022-12-10T15:37:50;-5.20;99.90
35746;DHT22;21870;42.812;74.628;2022-12-10T15:42:49;-5.20;99.90
35746;DHT22;21870;42.812;74.628;2022-12-10T15:45:27;-5.20;99.90
35746;DHT22;21870;42.812;74.628;2022-12-10T15:48:12;-5.10;99.90
35746;DHT22;21870;42.812;74.628;2022-12-10T15:50:40;-5.00;99.90
35746;DHT22;21870;42.812;74.628;2022-12-10T15:53:14;-5.00;99.90
35746;DHT22;21870;42.812;74.628;2022-12-10T15:55:42;-5.00;99.90
35746;DHT22;21870;42.812;74.628;2022-12-10T15:58:14;-5.10;99.90
35746;DHT22;21870;42.812;74.628;2022-12-10T16:00:41;-5.20;99.90
35746;DHT22;21870;42.812;74.628;2022-12-10T16:03:12;-5.40;99.90
35746;DHT22;21870;42.812;74.628;2022-12-10T16:05:39;-5.50;99.90
35746;DHT22;21870;42.812;74.628;2022-12-10T16:08:26;-5.50;99.90
35746;DHT22;21870;42.812;74.628;2022-12-10T16:10:55;-5.50;99.90
35746;DHT22;21870;42.812;74.628;2022-12-10T16:13:32;-5.50;99.90
35746;DHT22;21870;42.812;74.628;2022-12-10T16:16:08;-5.40;99.90
35746;DHT22;21870;42.812;74.628;2022-12-10T16:18:35;-5.30;99.90
35746;DHT22;21870;42.812;74.628;2022-12-10T16:21:03;-5.20;99.90
35746;DHT22;21870;42.812;74.628;2022-12-10T16:23:30;-5.20;99.90
35746;DHT22;21870;42.812;74.628;2022-12-10T16:25:57;-5.30;99.90
35746;DHT22;21870;42.812;74.628;2022-12-10T16:28:24;-5.40;99.90
35746;DHT22;21870;42.812;74.628;2022-12-10T16:30:52;-5.40;99.90
35746;DHT22;21870;42.812;74.628;2022-12-10T16:33:20;-5.50;99.90
35746;DHT22;21870;42.812;74.628;2022-12-10T16:35:47;-5.50;99.90
35746;DHT22;21870;42.812;74.628;2022-12-10T16:38:14;-5.40;99.90
35746;DHT22;21870;42.812;74.628;2022-12-10T16:40:41;-5.40;99.90
35746;DHT22;21870;42.812;74.628;2022-12-10T16:43:18;-5.50;99.90
35746;DHT22;21870;42.812;74.628;2022-12-10T16:45:45;-5.60;99.90
35746;DHT22;21870;42.812;74.628;2022-12-10T16:48:12;-5.50;99.90
35746;DHT22;21870;42.812;74.628;2022-12-10T16:50:39;-5.40;99.90
35746;DHT22;21870;42.812;74.628;2022-12-10T16:55:40;-5.40;99.90
35746;DHT22;21870;42.812;74.628;2022-12-10T16:58:10;-5.40;99.90
35746;DHT22;21870;42.812;74.628;2022-12-10T17:00:36;-5.50;99.90
35746;DHT22;21870;42.812;74.628;2022-12-10T17:03:03;-5.60;99.90
35746;DHT22;21870;42.812;74.628;2022-12-10T17:05:39;-5.50;99.90
35746;DHT22;21870;42.812;74.628;2022-12-10T17:08:05;-5.50;99.90
35746;DHT22;21870;42.812;74.628;2022-12-10T17:10:31;-5.50;99.90
35746;DHT22;21870;42.812;74.628;2022-12-10T17:13:16;-5.50;99.90